Time;durP1;ratioP1;P1;durP2;ratioP2;P2;SDS_P1;SDS_P2;PMS_P1;PMS_P2;Temp;Humidity;BMP_temperature;BMP_pressure;BME280_temperature;BME280_humidity;BME280_pressure;Samples;Min_cycle;Max_cycle;Signal;HPM_P1;HPM_P2
2022/05/02 00:00:01;;;;;;;14.25;8.95;;;;;;;6.39;72.67;102038.38;5072350;28;20067;-68
2022/05/02 00:02:26;;;;;;;14.25;9.40;;;;;;;6.34;73.83;102034.94;5068839;28;20025;-74
2022/05/02 00:04:51;;;;;;;13.93;9.15;;;;;;;6.33;73.80;102045.78;5065255;28;20357;-69
2022/05/02 00:07:17;;;;;;;15.68;8.70;;;;;;;6.27;74.52;102037.91;5067195;28;20598;-69
2022/05/02 00:09:42;;;;;;;16.23;10.07;;;;;;;6.23;73.74;102031.72;5084285;28;20031;-69
2022/05/02 00:12:09;;;;;;;13.75;9.38;;;;;;;6.24;73.62;102036.19;5070932;28;20430;-68
2022/05/02 00:14:34;;;;;;;15.98;9.60;;;;;;;6.21;74.06;102033.63;5059129;28;20485;-69
2022/05/02 00:17:00;;;;;;;16.13;9.65;;;;;;;6.18;74.79;102025.59;5067473;28;20044;-75
2022/05/02 00:19:25;;;;;;;19.58;11.20;;;;;;;6.18;73.77;102028.31;5078512;28;20481;-69
2022/05/02 00:21:51;;;;;;;15.85;9.85;;;;;;;6.17;73.40;102026.56;5056437;28;20024;-68
2022/05/02 00:24:16;;;;;;;14.98;9.65;;;;;;;6.20;73.46;102025.53;5071623;28;20075;-75
2022/05/02 00:26:42;;;;;;;20.80;11.75;;;;;;;6.18;73.44;102022.03;5069639;28;20036;-72
2022/05/02 00:29:07;;;;;;;17.48;10.88;;;;;;;6.14;73.74;102019.41;5071042;28;20033;-74
2022/05/02 00:31:33;;;;;;;14.98;10.60;;;;;;;6.10;73.11;102016.88;5070725;28;20032;-70
2022/05/02 00:33:59;;;;;;;20.00;11.15;;;;;;;6.05;74.38;102005.34;5057478;28;20028;-74
2022/05/02 00:36:25;;;;;;;17.25;10.75;;;;;;;6.01;74.04;102017.19;5079957;28;20036;-74
2022/05/02 00:38:50;;;;;;;14.57;9.52;;;;;;;5.99;74.13;102017.25;5059062;28;20513;-69
2022/05/02 00:41:16;;;;;;;15.30;9.57;;;;;;;5.94;74.08;102008.44;5079043;28;20033;-76
2022/05/02 00:43:42;;;;;;;19.25;10.90;;;;;;;5.91;74.57;102016.59;5070041;28;20503;-71
2022/05/02 00:46:22;;;;;;;16.23;10.57;;;;;;;5.87;73.78;102014.94;5070149;28;20131;-76
2022/05/02 00:48:47;;;;;;;21.42;11.95;;;;;;;5.81;75.35;102002.53;5051381;28;20405;-74
2022/05/02 00:51:14;;;;;;;19.63;11.88;;;;;;;5.76;75.00;102015.31;5062577;28;20068;-69
2022/05/02 00:53:41;;;;;;;24.58;13.23;;;;;;;5.70;75.40;102007.44;5071460;28;20094;-75
2022/05/02 00:56:07;;;;;;;17.05;11.35;;;;;;;5.72;75.02;102004.66;5075998;28;20130;-69
2022/05/02 00:58:36;;;;;;;17.60;12.00;;;;;;;5.71;75.03;102008.31;5079253;28;20119;-74
2022/05/02 01:01:03;;;;;;;17.90;12.27;;;;;;;5.73;74.71;102011.81;5068522;28;20391;-70
2022/05/02 01:03:30;;;;;;;21.85;12.75;;;;;;;5.73;73.99;102009.13;5070529;28;20484;-69
2022/05/02 01:08:39;;;;;;;21.58;11.02;;;;;;;5.72;74.07;102002.84;5065863;28;20108;-69
2022/05/02 01:11:05;;;;;;;18.17;11.98;;;;;;;5.69;74.14;102002.97;5069488;28;20104;-69
2022/05/02 01:13:43;;;;;;;18.77;12.40;;;;;;;5.66;74.66;102002.19;5068689;28;20481;-74
2022/05/02 01:16:13;;;;;;;16.52;10.63;;;;;;;5.60;75.39;102005.97;5069553;28;20052;-70
2022/05/02 01:18:39;;;;;;;15.77;11.50;;;;;;;5.52;76.04;102003.50;5059850;28;20112;-76
2022/05/02 01:21:15;;;;;;;20.40;12.23;;;;;;;5.46;75.46;102005.53;5064239;28;20128;-75
2022/05/02 01:23:42;;;;;;;18.55;11.30;;;;;;;5.42;75.31;102006.56;5055959;28;20150;-74
2022/05/02 01:26:07;;;;;;;19.50;12.38;;;;;;;5.34;76.37;101996.91;5061977;28;20051;-75
2022/05/02 01:28:41;;;;;;;23.63;12.63;;;;;;;5.35;76.08;102003.16;5067734;28;20412;-69
2022/05/02 01:31:07;;;;;;;20.48;13.30;;;;;;;5.30;76.28;101997.94;5070900;28;20044;-77
2022/05/02 01:33:34;;;;;;;20.65;12.57;;;;;;;5.29;75.62;102001.56;5038512;28;20035;-68
2022/05/02 01:35:59;;;;;;;21.50;12.02;;;;;;;5.29;75.89;102003.38;5056207;28;20086;-74
2022/05/02 01:38:24;;;;;;;21.33;12.90;;;;;;;5.24;76.39;101999.94;5047518;28;20445;-69
2022/05/02 01:40:50;;;;;;;21.35;12.38;;;;;;;5.21;76.90;101995.53;5068937;28;20032;-69
2022/05/02 01:43:15;;;;;;;18.13;11.77;;;;;;;5.16;77.28;101988.50;5051251;28;20127;-74
2022/05/02 01:45:40;;;;;;;22.92;13.07;;;;;;;5.12;77.35;101994.00;5067337;28;20056;-74
2022/05/02 01:48:06;;;;;;;19.33;11.63;;;;;;;5.08;77.69;101989.66;5060022;28;20400;-77
2022/05/02 01:50:31;;;;;;;21.88;12.30;;;;;;;5.06;77.33;101990.63;5046230;28;20025;-74
2022/05/02 01:52:57;;;;;;;26.30;13.85;;;;;;;5.03;77.32;101982.59;5069986;28;20055;-74
2022/05/02 01:55:22;;;;;;;20.75;12.20;;;;;;;5.03;75.85;101986.19;5069721;28;20025;-74
2022/05/02 01:57:47;;;;;;;19.60;12.00;;;;;;;5.05;75.76;101984.34;5064692;28;20033;-70
2022/05/02 02:00:13;;;;;;;20.02;12.52;;;;;;;5.03;76.79;101988.88;5052040;28;20063;-70
2022/05/02 02:02:42;;;;;;;19.15;12.20;;;;;;;4.97;77.22;101977.41;5064180;28;20043;-71
2022/05/02 02:07:51;;;;;;;16.38;11.18;;;;;;;4.92;77.13;101979.38;5068279;28;20020;-74
2022/05/02 02:10:17;;;;;;;18.48;12.88;;;;;;;4.85;77.39;101976.88;5066222;28;20036;-69
2022/05/02 02:12:42;;;;;;;18.23;11.38;;;;;;;4.83;77.68;101981.41;5069806;28;20043;-74
2022/05/02 02:15:09;;;;;;;18.25;12.68;;;;;;;4.78;77.56;101977.97;5078679;28;20415;-76
2022/05/02 02:17:34;;;;;;;18.35;11.35;;;;;;;4.77;77.66;101984.31;5058989;28;20067;-70
2022/05/02 02:19:59;;;;;;;18.83;11.43;;;;;;;4.72;78.24;101977.28;5063669;28;20512;-70
2022/05/02 02:22:25;;;;;;;18.88;11.45;;;;;;;4.71;78.22;101987.19;5067372;28;20028;-70
2022/05/02 02:24:50;;;;;;;18.55;12.35;;;;;;;4.68;78.49;101989.97;5069706;28;20399;-75
2022/05/02 02:27:16;;;;;;;23.70;12.80;;;;;;;4.59;78.08;101974.94;5083823;28;20028;-77
2022/05/02 02:29:41;;;;;;;22.33;13.57;;;;;;;4.62;78.30;101984.78;5066238;28;20024;-73
2022/05/02 02:32:07;;;;;;;21.00;11.70;;;;;;;4.59;77.56;101980.34;5060952;28;20378;-77
2022/05/02 02:34:33;;;;;;;18.75;11.73;;;;;;;4.63;77.51;101981.13;5055785;28;20025;-75
2022/05/02 02:36:58;;;;;;;17.67;11.55;;;;;;;4.61;76.75;101978.47;5060690;28;20411;-75
2022/05/02 02:39:23;;;;;;;18.17;12.00;;;;;;;4.60;77.13;101983.91;5074150;28;20232;-75
2022/05/02 02:41:49;;;;;;;18.88;11.90;;;;;;;4.59;77.70;101976.75;5069577;28;20127;-76
2022/05/02 02:44:14;;;;;;;20.33;11.70;;;;;;;4.58;78.45;101977.69;5072859;28;20422;-76
2022/05/02 02:46:39;;;;;;;18.92;11.88;;;;;;;4.52;78.54;101976.06;5084705;28;20613;-72
2022/05/02 02:49:05;;;;;;;18.48;12.15;;;;;;;4.48;78.18;101969.00;5058529;28;20514;-74
2022/05/02 02:51:30;;;;;;;18.23;11.48;;;;;;;4.44;78.38;101964.63;5063591;28;20044;-76
2022/05/02 02:53:55;;;;;;;21.55;11.80;;;;;;;4.42;78.09;101968.28;5055452;28;20136;-69
2022/05/02 02:56:21;;;;;;;20.13;11.68;;;;;;;4.42;77.93;101965.59;5070999;28;20123;-70
2022/05/02 02:58:46;;;;;;;19.08;12.18;;;;;;;4.35;78.40;101960.38;5073480;28;20434;-70
2022/05/02 03:01:12;;;;;;;17.75;11.02;;;;;;;4.35;78.38;101952.31;5073339;28;20040;-69
2022/05/02 03:03:37;;;;;;;20.02;11.38;;;;;;;4.33;78.02;101951.44;5070588;28;20044;-70
2022/05/02 03:06:05;;;;;;;17.27;10.02;;;;;;;4.34;77.32;101958.63;5069936;28;20036;-70
2022/05/02 03:08:36;;;;;;;18.73;11.60;;;;;;;4.34;77.71;101957.75;5070338;28;20042;-70
2022/05/02 03:11:03;;;;;;;20.20;12.15;;;;;;;4.29;78.83;101956.97;5070667;28;20033;-70
2022/05/02 03:13:29;;;;;;;18.65;12.32;;;;;;;4.25;79.15;101956.19;5067403;28;20039;-70
2022/05/02 03:15:55;;;;;;;18.27;11.80;;;;;;;4.22;79.10;101952.69;5071814;28;20059;-75
2022/05/02 03:18:21;;;;;;;17.45;11.07;;;;;;;4.20;78.96;101959.94;5063676;28;20403;-69
2022/05/02 03:20:46;;;;;;;18.05;11.93;;;;;;;4.18;78.06;101953.69;5049571;28;20032;-74
2022/05/02 03:23:11;;;;;;;17.05;10.40;;;;;;;4.18;78.61;101953.69;5071596;28;20394;-72
2022/05/02 03:25:37;;;;;;;19.25;11.18;;;;;;;4.16;78.50;101950.19;5073105;28;20028;-74
2022/05/02 03:28:02;;;;;;;18.80;10.43;;;;;;;4.17;78.22;101950.13;5071418;28;20029;-69
2022/05/02 03:30:28;;;;;;;18.95;11.38;;;;;;;4.14;79.02;101950.19;5070597;28;20082;-74
2022/05/02 03:32:53;;;;;;;20.48;12.32;;;;;;;4.12;78.76;101953.88;5064594;28;20055;-70
2022/05/02 03:35:18;;;;;;;18.40;11.68;;;;;;;4.11;78.37;101950.31;5049788;28;20068;-70
2022/05/02 03:37:44;;;;;;;20.38;12.70;;;;;;;4.11;78.69;101947.63;5070998;28;20032;-70
2022/05/02 03:40:09;;;;;;;20.75;12.05;;;;;;;4.08;78.11;101945.88;5071280;28;20051;-75
2022/05/02 03:42:36;;;;;;;19.58;12.15;;;;;;;4.07;79.21;101949.50;5071077;28;20024;-75
2022/05/02 03:45:01;;;;;;;20.25;12.27;;;;;;;4.03;79.27;101938.88;5070317;28;20462;-71
2022/05/02 03:47:26;;;;;;;21.23;12.30;;;;;;;4.00;78.65;101941.63;5069727;28;20036;-73
2022/05/02 03:49:52;;;;;;;19.98;12.20;;;;;;;3.99;79.35;101951.53;5066001;28;20112;-71
2022/05/02 03:52:18;;;;;;;20.38;12.88;;;;;;;3.96;79.09;101946.19;5053684;28;20131;-76
2022/05/02 03:54:43;;;;;;;20.17;12.65;;;;;;;3.94;78.59;101944.50;5071153;28;20511;-76
2022/05/02 03:57:08;;;;;;;20.92;12.52;;;;;;;3.92;79.70;101949.06;5070734;28;20502;-76
2022/05/02 03:59:34;;;;;;;20.90;12.27;;;;;;;3.88;78.94;101944.69;5072058;28;20036;-76
2022/05/02 04:01:59;;;;;;;18.33;12.52;;;;;;;3.91;78.32;101950.84;5050967;28;20719;-74
2022/05/02 04:04:24;;;;;;;20.73;11.95;;;;;;;3.91;79.24;101950.84;5052803;28;20040;-70
2022/05/02 04:06:50;;;;;;;21.40;12.65;;;;;;;3.87;78.49;101949.19;5056843;28;20408;-69
2022/05/02 04:09:15;;;;;;;22.15;12.75;;;;;;;3.86;79.08;101950.06;5071848;28;20029;-69
2022/05/02 04:11:41;;;;;;;21.30;12.30;;;;;;;3.82;79.16;101954.69;5070968;28;20048;-70
2022/05/02 04:14:07;;;;;;;17.40;11.40;;;;;;;3.83;79.35;101953.75;5069594;28;20538;-69
2022/05/02 04:16:32;;;;;;;18.17;11.60;;;;;;;3.79;79.40;101951.19;5068224;28;20037;-74
2022/05/02 04:18:57;;;;;;;19.33;11.77;;;;;;;3.77;79.49;101955.69;5073091;28;20028;-70
2022/05/02 04:21:23;;;;;;;22.08;12.45;;;;;;;3.77;79.25;101953.00;5064032;28;20505;-68
2022/05/02 04:23:48;;;;;;;20.33;11.45;;;;;;;3.76;79.03;101953.94;5070349;28;20078;-76
2022/05/02 04:26:13;;;;;;;17.10;11.60;;;;;;;3.77;79.27;101953.91;5053804;28;20036;-69
2022/05/02 04:28:39;;;;;;;20.27;12.35;;;;;;;3.75;79.43;101947.69;5070827;28;20043;-76
2022/05/02 04:31:05;;;;;;;19.10;11.50;;;;;;;3.77;79.05;101955.69;5060956;28;20027;-73
2022/05/02 04:33:30;;;;;;;21.55;12.88;;;;;;;3.78;79.41;101958.38;5073260;28;20040;-73
2022/05/02 04:35:56;;;;;;;22.08;13.95;;;;;;;3.78;79.89;101960.19;5059552;28;20032;-71
2022/05/02 04:38:21;;;;;;;21.75;12.35;;;;;;;3.76;79.89;101957.50;5071172;28;20037;-70
2022/05/02 04:40:47;;;;;;;20.15;11.65;;;;;;;3.78;79.26;101953.00;5070082;28;20040;-76
2022/05/02 04:43:13;;;;;;;22.55;11.85;;;;;;;3.83;79.22;101953.75;5053526;28;20040;-74
2022/05/02 04:45:39;;;;;;;18.42;10.60;;;;;;;3.88;79.11;101947.38;5069293;28;20511;-73
2022/05/02 04:48:05;;;;;;;18.88;11.55;;;;;;;3.90;78.61;101949.06;5067729;28;20032;-76
2022/05/02 04:50:30;;;;;;;18.55;10.98;;;;;;;3.97;78.17;101948.00;5050845;28;20519;-74
2022/05/02 04:52:56;;;;;;;16.65;11.27;;;;;;;4.04;79.18;101946.88;5067234;28;20036;-69
2022/05/02 04:55:21;;;;;;;21.65;11.32;;;;;;;4.07;79.16;101951.31;5049043;28;20091;-70
2022/05/02 04:57:46;;;;;;;18.83;11.32;;;;;;;4.07;79.31;101944.13;5065456;28;20045;-74
2022/05/02 05:00:14;;;;;;;19.17;12.38;;;;;;;4.09;79.11;101953.03;5063947;28;20111;-70
2022/05/02 05:02:39;;;;;;;18.15;10.45;;;;;;;4.14;79.06;101947.50;5055762;28;20029;-69
2022/05/02 05:05:07;;;;;;;20.80;11.98;;;;;;;4.22;79.77;101963.47;5063683;28;20491;-72
2022/05/02 05:07:32;;;;;;;21.35;12.48;;;;;;;4.30;79.11;101956.06;5051978;28;20029;-71
2022/05/02 05:09:57;;;;;;;22.70;13.05;;;;;;;4.36;79.68;101953.19;5069503;28;20059;-70
2022/05/02 05:12:34;;;;;;;21.98;12.25;;;;;;;4.47;78.90;101959.13;5069311;28;20515;-75
2022/05/02 05:18:07;;;;;;;26.48;13.57;;;;;;;4.71;79.23;101960.25;5065391;28;20510;-75
2022/05/02 05:20:44;;;;;;;34.28;13.38;;;;;;;4.83;79.36;101956.25;5060431;28;20476;-73
2022/05/02 05:23:18;;;;;;;26.42;13.15;;;;;;;4.96;78.28;101951.38;5068163;28;20076;-70
2022/05/02 05:26:04;;;;;;;26.08;14.35;;;;;;;5.10;77.99;101959.91;5069185;28;20036;-75
2022/05/02 05:28:58;;;;;;;29.48;15.15;;;;;;;5.20;77.97;101966.78;5066337;28;20535;-70
2022/05/02 05:31:42;;;;;;;24.17;14.98;;;;;;;5.31;78.35;101958.34;5069242;28;20061;-69
2022/05/02 05:34:33;;;;;;;29.15;15.52;;;;;;;5.43;77.88;101952.53;5065718;28;20706;-70
2022/05/02 05:37:11;;;;;;;28.20;14.20;;;;;;;5.53;77.76;101950.41;5054294;28;20033;-70
2022/05/02 05:40:01;;;;;;;25.73;13.50;;;;;;;5.61;78.44;101956.44;5068816;28;20123;-70
2022/05/02 05:42:32;;;;;;;24.98;14.88;;;;;;;5.69;79.28;101953.47;5064568;28;20032;-70
2022/05/02 05:45:26;;;;;;;29.58;15.73;;;;;;;5.79;78.23;101954.94;5067060;28;20036;-73
2022/05/02 05:47:58;;;;;;;28.95;14.93;;;;;;;5.91;79.29;101957.19;5061048;28;20089;-76
2022/05/02 05:50:29;;;;;;;32.05;16.80;;;;;;;6.00;79.39;101953.31;5061864;28;20090;-75
2022/05/02 05:53:18;;;;;;;31.00;17.65;;;;;;;6.09;80.44;101961.97;5067702;28;20042;-69
2022/05/02 05:55:46;;;;;;;34.08;18.92;;;;;;;6.19;81.15;101956.25;5070023;28;20438;-70
2022/05/02 05:58:24;;;;;;;31.30;16.83;;;;;;;6.27;80.75;101963.13;5058009;28;20040;-73
2022/05/02 06:00:52;;;;;;;33.65;17.40;;;;;;;6.37;80.80;101961.84;5063983;28;20070;-75
2022/05/02 06:03:24;;;;;;;31.25;17.70;;;;;;;6.48;80.14;101960.56;5050996;28;20388;-70
2022/05/02 06:05:49;;;;;;;29.60;17.08;;;;;;;6.55;80.83;101968.41;5063717;28;20044;-75
2022/05/02 06:08:19;;;;;;;30.10;17.30;;;;;;;6.62;80.64;101963.63;5056924;28;20477;-71
2022/05/02 06:10:46;;;;;;;32.47;17.67;;;;;;;6.72;80.25;101969.59;5068427;28;20036;-73
2022/05/02 06:13:14;;;;;;;36.08;18.88;;;;;;;6.78;80.61;101961.22;5055382;28;20036;-71
2022/05/02 06:18:31;;;;;;;37.20;18.80;;;;;;;6.97;80.48;101973.09;5057341;28;20047;-75
2022/05/02 06:21:05;;;;;;;29.98;18.70;;;;;;;7.07;80.34;101968.19;5066571;28;20036;-72
2022/05/02 06:23:45;;;;;;;40.47;19.17;;;;;;;7.21;79.56;101965.81;5058289;28;20373;-70
2022/05/02 06:26:10;;;;;;;32.70;18.65;;;;;;;7.33;79.50;101977.97;5069968;28;20033;-70
2022/05/02 06:28:45;;;;;;;30.65;18.63;;;;;;;7.45;79.14;101963.91;5069850;28;20556;-72
2022/05/02 06:31:24;;;;;;;32.40;18.27;;;;;;;7.54;78.70;101958.13;5055488;28;20396;-72
2022/05/02 06:33:50;;;;;;;30.25;18.45;;;;;;;7.73;77.62;101968.19;5067318;28;20399;-73
2022/05/02 06:36:35;;;;;;;33.47;18.98;;;;;;;7.83;78.43;101965.03;5054422;28;20037;-70
2022/05/02 06:39:15;;;;;;;30.05;18.85;;;;;;;7.94;77.76;101972.69;5057238;28;20507;-70
2022/05/02 06:42:10;;;;;;;30.38;18.13;;;;;;;8.06;77.50;101965.84;5067225;28;20146;-72
2022/05/02 06:44:51;;;;;;;31.00;18.25;;;;;;;8.19;77.23;101977.91;5068233;28;20039;-69
2022/05/02 06:47:41;;;;;;;33.58;19.80;;;;;;;8.31;76.57;101965.66;5065201;28;20029;-68
2022/05/02 06:50:07;;;;;;;30.67;19.25;;;;;;;8.48;77.10;101970.31;5062477;28;20036;-73
2022/05/02 06:53:06;;;;;;;28.40;18.70;;;;;;;8.55;76.42;101969.09;5057160;28;20036;-68
2022/05/02 06:55:54;;;;;;;27.35;17.42;;;;;;;8.65;75.17;101971.31;5067984;28;20414;-68
2022/05/02 06:58:40;;;;;;;26.25;17.00;;;;;;;8.89;74.55;101963.84;5068037;28;20044;-75
2022/05/02 07:01:23;;;;;;;32.10;18.05;;;;;;;9.03;74.32;101962.31;5067362;28;20043;-70
2022/05/02 07:04:13;;;;;;;26.15;17.40;;;;;;;9.12;74.26;101965.47;5055196;28;20033;-69
2022/05/02 07:07:01;;;;;;;25.75;17.10;;;;;;;9.23;73.03;101966.78;5057634;28;20040;-70
2022/05/02 07:09:50;;;;;;;28.75;16.95;;;;;;;9.35;72.39;101963.47;5082428;28;20036;-74
2022/05/02 07:12:24;;;;;;;25.02;15.85;;;;;;;9.44;71.04;101969.31;5069455;28;20182;-75
2022/05/02 07:15:01;;;;;;;26.50;16.10;;;;;;;9.55;70.65;101962.47;5068949;28;20061;-75
2022/05/02 07:17:50;;;;;;;26.35;16.83;;;;;;;9.61;70.88;101956.75;5056961;28;20035;-68
2022/05/02 07:20:21;;;;;;;24.92;15.18;;;;;;;9.76;69.04;101958.66;5050871;28;20548;-69
2022/05/02 07:23:09;;;;;;;20.20;13.77;;;;;;;9.92;67.82;101961.47;5064282;28;20048;-72
2022/05/02 07:25:38;;;;;;;24.42;14.63;;;;;;;10.08;66.22;101967.88;5067817;28;20122;-73
2022/05/02 07:28:25;;;;;;;22.73;14.82;;;;;;;10.17;68.02;101958.38;5051069;28;20028;-68
2022/05/02 07:30:55;;;;;;;23.88;14.68;;;;;;;10.23;68.37;101958.03;5063232;28;20064;-67
2022/05/02 07:33:20;;;;;;;26.13;15.88;;;;;;;10.33;68.06;101963.88;5053266;28;20035;-72
2022/05/02 07:35:47;;;;;;;21.92;14.65;;;;;;;10.37;68.54;101958.19;5061769;28;20443;-69
2022/05/02 07:38:16;;;;;;;25.65;13.73;;;;;;;10.46;65.03;101960.44;5055487;28;20029;-70
2022/05/02 07:41:22;;;;;;;20.17;13.13;;;;;;;10.57;64.67;101967.13;5071546;28;20105;-72
2022/05/02 07:43:33;;;;;;;21.27;13.10;;;;;;;10.69;64.89;101966.47;5069546;28;20503;-72
2022/05/02 07:46:00;;;;;;;20.55;12.23;;;;;;;10.84;64.59;101962.00;5072473;28;20040;-75
2022/05/02 07:48:26;;;;;;;21.05;13.77;;;;;;;11.22;64.03;101951.66;5038799;28;20025;-75
2022/05/02 07:50:52;;;;;;;18.63;11.68;;;;;;;11.65;58.98;101963.66;5059706;28;20044;-69
2022/05/02 07:53:19;;;;;;;20.73;14.32;;;;;;;12.07;60.88;101962.09;5066641;28;20103;-74
2022/05/02 07:55:47;;;;;;;17.17;10.85;;;;;;;12.52;57.38;101957.50;5070994;28;20093;-68
2022/05/02 07:58:14;;;;;;;18.65;11.38;;;;;;;12.81;56.13;101957.50;5066944;28;20048;-68
2022/05/02 08:00:39;;;;;;;16.30;11.68;;;;;;;12.96;55.63;101962.88;5070509;28;20112;-69
2022/05/02 08:03:05;;;;;;;19.15;13.15;;;;;;;13.06;56.85;101957.69;5054099;28;20120;-68
2022/05/02 08:05:30;;;;;;;19.67;12.63;;;;;;;13.40;54.96;101950.91;5067801;28;20028;-68
2022/05/02 08:08:10;;;;;;;19.33;11.38;;;;;;;13.62;54.60;101957.66;5061142;28;20029;-72
2022/05/02 08:11:00;;;;;;;17.13;11.52;;;;;;;14.21;57.51;101953.53;5063907;28;20048;-74
2022/05/02 08:13:40;;;;;;;17.50;11.93;;;;;;;14.97;54.87;101957.31;5060510;28;20042;-68
2022/05/02 08:16:23;;;;;;;14.75;10.70;;;;;;;15.78;54.94;101948.47;5070657;28;20060;-69
2022/05/02 08:18:58;;;;;;;;;;;;;;;16.07;51.19;101949.84;5065772;28;20040;-75
2022/05/02 08:21:26;;;;;;;15.18;10.32;;;;;;;15.60;45.73;101945.25;5058211;28;19924;-72
2022/05/02 08:27:15;;;;;;;19.30;11.55;;;;;;;15.34;47.61;101951.81;5060344;28;20116;-71
2022/05/02 08:30:03;;;;;;;16.58;10.68;;;;;;;15.16;47.47;101944.00;5070506;28;20377;-67
2022/05/02 08:32:50;;;;;;;17.42;11.07;;;;;;;15.36;49.22;101955.31;5059447;28;20036;-74
2022/05/02 08:35:37;;;;;;;14.32;10.85;;;;;;;15.06;48.18;101951.09;5051299;28;20040;-73
2022/05/02 08:38:16;;;;;;;20.05;11.07;;;;;;;14.93;46.32;101955.78;5052699;28;20036;-72
2022/05/02 08:41:19;;;;;;;14.45;10.18;;;;;;;15.17;48.97;101947.59;5071786;28;20040;-71
2022/05/02 08:44:09;;;;;;;16.55;11.25;;;;;;;15.50;45.72;101952.41;5056905;28;20025;-67
2022/05/02 08:47:11;;;;;;;14.95;10.70;;;;;;;15.45;47.36;101949.16;5048687;28;20127;-74
2022/05/02 08:50:35;;;;;;;17.65;10.60;;;;;;;15.63;44.96;101949.63;5064206;28;20074;-69
2022/05/02 08:53:33;;;;;;;17.27;9.82;;;;;;;15.95;44.71;101952.69;5027016;28;20037;-74
2022/05/02 08:56:10;;;;;;;14.20;9.27;;;;;;;16.37;47.16;101950.28;4997939;28;20034;-72
2022/05/02 08:58:51;;;;;;;15.75;10.45;;;;;;;16.37;43.13;101942.03;5042577;28;20404;-72
2022/05/02 09:01:45;;;;;;;14.68;9.82;;;;;;;16.28;45.82;101943.66;5050764;28;20047;-74
2022/05/02 09:05:06;;;;;;;14.65;9.00;;;;;;;16.42;43.89;101946.19;5029939;28;20044;-67
2022/05/02 09:08:16;;;;;;;13.00;9.20;;;;;;;16.04;44.28;101946.44;4975220;28;20375;-72
2022/05/02 09:11:07;;;;;;;16.40;10.15;;;;;;;16.27;43.09;101934.56;5064960;28;20047;-67
2022/05/02 09:14:18;;;;;;;11.13;8.98;;;;;;;16.88;46.79;101928.78;5059021;28;20036;-74
2022/05/02 09:16:52;;;;;;;15.35;8.73;;;;;;;17.47;43.71;101938.56;5058378;28;20452;-67
2022/05/02 09:19:45;;;;;;;14.32;9.02;;;;;;;17.64;42.11;101935.25;5085615;28;20040;-67
2022/05/02 09:22:32;;;;;;;14.23;8.95;;;;;;;17.40;41.51;101938.22;5053674;28;20060;-67
2022/05/02 09:25:08;;;;;;;14.05;9.35;;;;;;;17.36;44.22;101933.97;5069845;28;20034;-74
2022/05/02 09:27:52;;;;;;;14.82;8.93;;;;;;;17.76;44.83;101927.84;5069025;28;20028;-71
2022/05/02 09:30:45;;;;;;;15.00;9.13;;;;;;;18.20;42.11;101924.00;5070676;28;20044;-73
2022/05/02 09:33:23;;;;;;;;;;;;;;;18.61;43.19;101933.25;5056938;28;20091;-75
2022/05/02 09:36:01;;;;;;;11.60;9.05;;;;;;;18.43;37.43;101933.00;5059577;28;19913;-69
2022/05/02 09:38:32;;;;;;;12.13;8.73;;;;;;;17.84;35.76;101928.94;5055592;28;20037;-67
2022/05/02 09:41:19;;;;;;;18.38;9.07;;;;;;;17.96;41.00;101927.03;5070238;28;20119;-67
2022/05/02 09:50:40;;;;;;;14.07;9.77;;;;;;;19.13;37.33;101917.53;5001972;28;20125;-73
2022/05/02 09:53:17;;;;;;;12.55;9.05;;;;;;;19.15;38.78;101912.75;5049667;28;20056;-67
2022/05/02 09:58:37;;;;;;;15.07;9.38;;;;;;;18.32;38.13;101911.03;5069936;28;20044;-68
2022/05/02 10:01:21;;;;;;;14.45;9.43;;;;;;;18.42;41.52;101913.84;5064072;28;20037;-72
2022/05/02 10:04:18;;;;;;;11.88;8.77;;;;;;;18.67;41.25;101909.78;5053006;28;20032;-67
2022/05/02 10:06:48;;;;;;;12.48;8.07;;;;;;;19.11;38.69;101903.88;5063800;28;20038;-66
2022/05/02 10:09:45;;;;;;;14.13;8.68;;;;;;;18.80;38.04;101913.22;5069491;28;20040;-74
2022/05/02 10:12:29;;;;;;;13.35;7.85;;;;;;;18.59;35.02;101907.69;5068776;28;20036;-68
2022/05/02 10:15:20;;;;;;;14.60;8.60;;;;;;;18.30;38.66;101910.31;5056480;28;20053;-72
2022/05/02 10:18:18;;;;;;;12.40;9.20;;;;;;;17.90;37.39;101902.75;5055995;28;20098;-73
2022/05/02 10:21:13;;;;;;;13.27;8.05;;;;;;;18.27;40.27;101900.41;5059944;28;20029;-74
2022/05/02 10:23:52;;;;;;;16.60;8.70;;;;;;;18.06;37.51;101903.19;5073583;28;20036;-74
2022/05/02 10:26:40;;;;;;;11.75;9.20;;;;;;;17.88;37.67;101896.53;5069475;28;20032;-68
2022/05/02 10:29:35;;;;;;;15.18;8.65;;;;;;;17.83;38.45;101890.53;5064805;28;20036;-75
2022/05/02 10:32:23;;;;;;;12.30;8.20;;;;;;;18.28;38.26;101904.94;5068035;28;20524;-66
2022/05/02 10:34:52;;;;;;;11.77;7.78;;;;;;;18.88;38.18;101898.72;5064006;28;20045;-75
2022/05/02 10:37:24;;;;;;;11.55;8.35;;;;;;;19.32;35.68;101894.66;5050293;28;20040;-66
2022/05/02 10:39:57;;;;;;;10.68;8.40;;;;;;;19.20;34.93;101893.88;5065067;28;20403;-73
2022/05/02 10:42:25;;;;;;;10.75;7.75;;;;;;;19.03;35.09;101884.41;5064838;28;20037;-73
2022/05/02 10:45:04;;;;;;;8.13;7.00;;;;;;;19.21;35.45;101881.84;5051310;28;20475;-73
2022/05/02 10:47:39;;;;;;;15.15;8.32;;;;;;;19.70;35.12;101874.50;5063027;28;20078;-66
2022/05/02 10:50:16;;;;;;;11.57;7.50;;;;;;;20.24;36.43;101872.13;5064361;28;20036;-74
2022/05/02 10:52:54;;;;;;;9.63;8.05;;;;;;;20.41;37.38;101868.56;5048198;28;20123;-72
2022/05/02 10:55:33;;;;;;;14.75;8.93;;;;;;;19.85;35.61;101869.41;5066547;28;20083;-72
2022/05/02 10:58:04;;;;;;;14.00;8.82;;;;;;;19.38;34.02;101872.00;5069476;28;20128;-67
2022/05/02 11:00:32;;;;;;;15.63;9.45;;;;;;;19.03;33.99;101875.28;5055202;28;20549;-73
2022/05/02 11:03:44;;;;;;;12.13;9.45;;;;;;;18.96;38.56;101863.03;5060197;28;20033;-66
2022/05/02 11:06:26;;;;;;;10.03;8.30;;;;;;;19.10;39.07;101858.00;5022764;28;20049;-75
2022/05/02 11:08:58;;;;;;;15.15;8.52;;;;;;;19.40;35.06;101858.03;5067585;28;20407;-73
2022/05/02 11:11:41;;;;;;;13.52;9.23;;;;;;;19.92;37.38;101858.66;5071586;28;20556;-66
2022/05/02 11:14:29;;;;;;;17.73;9.20;;;;;;;20.38;34.81;101861.47;5073026;28;20471;-66
2022/05/02 11:17:19;;;;;;;15.55;9.90;;;;;;;20.13;35.82;101857.44;5054899;28;20036;-70
2022/05/02 11:22:56;;;;;;;9.35;7.85;;;;;;;20.42;36.14;101853.72;5058080;28;20052;-74
2022/05/02 11:25:24;;;;;;;13.10;8.77;;;;;;;20.37;32.12;101845.00;5071578;28;20056;-73
2022/05/02 11:28:44;;;;;;;11.38;8.38;;;;;;;20.45;35.19;101849.81;5071497;28;20059;-69
2022/05/02 11:31:22;;;;;;;14.90;9.20;;;;;;;19.81;33.85;101849.50;5011158;28;20430;-74
2022/05/02 11:34:03;;;;;;;11.90;8.57;;;;;;;19.94;34.42;101846.44;5059959;28;20036;-73
2022/05/02 11:36:34;;;;;;;13.05;8.55;;;;;;;20.38;32.88;101842.13;5056751;28;20029;-69
2022/05/02 11:39:08;;;;;;;16.42;8.63;;;;;;;20.70;31.87;101839.97;5061383;28;20064;-67
2022/05/02 11:41:41;;;;;;;11.25;8.48;;;;;;;20.73;29.58;101834.16;5072668;28;20025;-73
2022/05/02 11:44:10;;;;;;;10.95;8.38;;;;;;;20.61;30.74;101827.94;5069891;28;20543;-66
2022/05/02 11:46:49;;;;;;;13.55;7.82;;;;;;;20.99;35.25;101837.06;5064645;28;20440;-73
2022/05/02 11:49:41;;;;;;;11.38;7.35;;;;;;;20.99;32.39;101839.84;5061959;28;20043;-68
2022/05/02 11:52:11;;;;;;;11.73;8.13;;;;;;;20.91;32.80;101828.66;5068506;28;20119;-67
2022/05/02 11:54:42;;;;;;;9.70;7.60;;;;;;;20.80;31.13;101827.84;5062436;28;20120;-74
2022/05/02 11:57:18;;;;;;;14.40;8.37;;;;;;;21.15;32.92;101826.16;5072576;28;20294;-73
2022/05/02 11:59:53;;;;;;;10.20;7.35;;;;;;;21.84;35.10;101822.72;5062436;28;20060;-73
2022/05/02 12:02:36;;;;;;;10.38;6.93;;;;;;;22.61;33.88;101825.66;5063332;28;20036;-74
2022/05/02 12:05:05;;;;;;;11.45;8.10;;;;;;;23.00;31.04;101826.03;5062332;28;20455;-72
2022/05/02 12:07:33;;;;;;;10.82;7.93;;;;;;;22.90;28.76;101833.63;5057679;28;20025;-74
2022/05/02 12:10:07;;;;;;;10.32;8.02;;;;;;;22.77;30.64;101830.41;5072093;28;20021;-74
2022/05/02 12:12:33;;;;;;;15.15;10.35;;;;;;;22.25;28.85;101828.59;5071887;28;20837;-66